sensor_id;sensor_type;location;lat;lon;timestamp;pressure;altitude;pressure_sealevel;temperature;humidity
68871;BME280;55906;52.278;6.808;2023-07-31T00:01:17;100809.09;;;15.92;99.04
68871;BME280;55906;52.278;6.808;2023-07-31T00:03:45;100800.22;;;15.79;98.90
68871;BME280;55906;52.278;6.808;2023-07-31T00:06:12;100807.31;;;15.86;99.38
68871;BME280;55906;52.278;6.808;2023-07-31T00:08:39;100818.81;;;15.84;99.83
68871;BME280;55906;52.278;6.808;2023-07-31T00:11:07;100812.59;;;15.80;99.68
68871;BME280;55906;52.278;6.808;2023-07-31T00:13:33;100809.09;;;15.87;99.63
68871;BME280;55906;52.278;6.808;2023-07-31T00:16:00;100805.53;;;15.85;100.00
68871;BME280;55906;52.278;6.808;2023-07-31T00:18:26;100803.78;;;15.84;100.00
68871;BME280;55906;52.278;6.808;2023-07-31T00:20:53;100807.31;;;15.83;100.00
68871;BME280;55906;52.278;6.808;2023-07-31T00:23:20;100797.59;;;15.84;100.00
68871;BME280;55906;52.278;6.808;2023-07-31T00:25:46;100789.63;;;15.84;100.00
68871;BME280;55906;52.278;6.808;2023-07-31T00:28:14;100805.53;;;15.84;100.00
68871;BME280;55906;52.278;6.808;2023-07-31T00:30:41;100801.97;;;15.76;100.00
68871;BME280;55906;52.278;6.808;2023-07-31T00:33:07;100802.84;;;15.70;100.00
68871;BME280;55906;52.278;6.808;2023-07-31T00:35:34;100786.94;;;15.75;100.00
68871;BME280;55906;52.278;6.808;2023-07-31T00:38:01;100798.44;;;15.75;100.00
68871;BME280;55906;52.278;6.808;2023-07-31T00:40:27;100796.66;;;15.71;100.00
68871;BME280;55906;52.278;6.808;2023-07-31T00:42:54;100791.38;;;15.76;100.00
68871;BME280;55906;52.278;6.808;2023-07-31T00:45:23;100780.75;;;15.77;100.00
68871;BME280;55906;52.278;6.808;2023-07-31T00:47:52;100786.06;;;15.76;100.00
68871;BME280;55906;52.278;6.808;2023-07-31T00:50:18;100781.66;;;15.78;100.00
68871;BME280;55906;52.278;6.808;2023-07-31T00:52:45;100789.59;;;15.73;100.00
68871;BME280;55906;52.278;6.808;2023-07-31T00:55:12;100771.00;;;15.70;100.00
68871;BME280;55906;52.278;6.808;2023-07-31T00:57:41;100778.09;;;15.71;100.00
68871;BME280;55906;52.278;6.808;2023-07-31T01:00:08;100758.63;;;15.66;100.00
68871;BME280;55906;52.278;6.808;2023-07-31T01:02:37;100770.13;;;15.68;100.00
68871;BME280;55906;52.278;6.808;2023-07-31T01:05:04;100752.44;;;15.68;100.00
68871;BME280;55906;52.278;6.808;2023-07-31T01:07:44;100748.03;;;15.71;100.00
68871;BME280;55906;52.278;6.808;2023-07-31T01:10:16;100741.84;;;15.70;100.00
68871;BME280;55906;52.278;6.808;2023-07-31T01:12:45;100740.06;;;15.71;100.00
68871;BME280;55906;52.278;6.808;2023-07-31T01:15:12;100742.72;;;15.74;100.00
68871;BME280;55906;52.278;6.808;2023-07-31T01:17:42;100733.88;;;15.73;100.00
68871;BME280;55906;52.278;6.808;2023-07-31T01:20:11;100737.44;;;15.74;100.00
68871;BME280;55906;52.278;6.808;2023-07-31T01:22:58;100736.53;;;15.76;100.00
68871;BME280;55906;52.278;6.808;2023-07-31T01:25:56;100741.84;;;15.76;100.00
68871;BME280;55906;52.278;6.808;2023-07-31T01:28:32;100743.63;;;15.77;100.00
68871;BME280;55906;52.278;6.808;2023-07-31T01:31:00;100735.66;;;15.80;100.00
68871;BME280;55906;52.278;6.808;2023-07-31T01:33:27;100733.00;;;15.74;100.00
68871;BME280;55906;52.278;6.808;2023-07-31T01:35:56;100736.53;;;15.75;100.00
68871;BME280;55906;52.278;6.808;2023-07-31T01:38:23;100740.97;;;15.74;100.00
68871;BME280;55906;52.278;6.808;2023-07-31T01:40:51;100736.53;;;15.76;100.00
68871;BME280;55906;52.278;6.808;2023-07-31T01:43:20;100733.91;;;15.78;100.00
68871;BME280;55906;52.278;6.808;2023-07-31T01:45:46;100731.25;;;15.79;100.00
68871;BME280;55906;52.278;6.808;2023-07-31T01:48:13;100737.44;;;15.81;100.00
68871;BME280;55906;52.278;6.808;2023-07-31T01:50:39;100725.94;;;15.79;100.00
68871;BME280;55906;52.278;6.808;2023-07-31T01:53:06;100724.16;;;15.77;100.00
68871;BME280;55906;52.278;6.808;2023-07-31T01:55:33;100722.41;;;15.79;100.00
68871;BME280;55906;52.278;6.808;2023-07-31T01:57:59;100720.63;;;15.81;100.00
68871;BME280;55906;52.278;6.808;2023-07-31T02:00:27;100717.09;;;15.83;100.00
68871;BME280;55906;52.278;6.808;2023-07-31T02:02:53;100724.19;;;15.81;100.00
68871;BME280;55906;52.278;6.808;2023-07-31T02:05:19;100715.34;;;15.81;100.00
68871;BME280;55906;52.278;6.808;2023-07-31T02:07:46;100698.53;;;15.80;100.00
68871;BME280;55906;52.278;6.808;2023-07-31T02:10:13;100711.81;;;15.85;100.00
68871;BME280;55906;52.278;6.808;2023-07-31T02:12:39;100707.38;;;15.87;100.00
68871;BME280;55906;52.278;6.808;2023-07-31T02:15:09;100702.06;;;15.85;100.00
68871;BME280;55906;52.278;6.808;2023-07-31T02:17:40;100696.78;;;15.84;100.00
68871;BME280;55906;52.278;6.808;2023-07-31T02:20:08;100686.16;;;15.82;100.00
68871;BME280;55906;52.278;6.808;2023-07-31T02:22:36;100683.50;;;15.79;100.00
68871;BME280;55906;52.278;6.808;2023-07-31T02:25:03;100682.63;;;15.83;100.00
68871;BME280;55906;52.278;6.808;2023-07-31T02:27:30;100684.41;;;15.89;100.00
68871;BME280;55906;52.278;6.808;2023-07-31T02:29:56;100674.66;;;15.91;100.00
68871;BME280;55906;52.278;6.808;2023-07-31T02:32:24;100672.91;;;15.91;100.00
68871;BME280;55906;52.278;6.808;2023-07-31T02:34:52;100675.56;;;15.96;100.00
68871;BME280;55906;52.278;6.808;2023-07-31T02:37:19;100674.69;;;15.95;100.00
68871;BME280;55906;52.278;6.808;2023-07-31T02:39:46;100677.31;;;15.94;100.00
68871;BME280;55906;52.278;6.808;2023-07-31T02:42:12;100667.59;;;15.97;100.00
68871;BME280;55906;52.278;6.808;2023-07-31T02:44:39;100660.53;;;16.01;100.00
68871;BME280;55906;52.278;6.808;2023-07-31T02:47:06;100657.88;;;16.06;100.00
68871;BME280;55906;52.278;6.808;2023-07-31T02:49:32;100658.75;;;16.05;100.00
68871;BME280;55906;52.278;6.808;2023-07-31T02:52:00;100659.63;;;16.11;100.00
68871;BME280;55906;52.278;6.808;2023-07-31T02:54:27;100661.41;;;16.14;100.00
68871;BME280;55906;52.278;6.808;2023-07-31T02:56:54;100667.59;;;16.19;100.00
68871;BME280;55906;52.278;6.808;2023-07-31T02:59:20;100675.56;;;16.22;100.00
68871;BME280;55906;52.278;6.808;2023-07-31T03:01:47;100669.38;;;16.21;100.00
68871;BME280;55906;52.278;6.808;2023-07-31T03:04:14;100662.28;;;16.26;100.00
68871;BME280;55906;52.278;6.808;2023-07-31T03:06:40;100654.31;;;16.28;100.00
68871;BME280;55906;52.278;6.808;2023-07-31T03:09:08;100659.63;;;16.26;100.00
68871;BME280;55906;52.278;6.808;2023-07-31T03:11:35;100661.41;;;16.33;100.00
68871;BME280;55906;52.278;6.808;2023-07-31T03:14:01;100649.88;;;16.35;100.00
68871;BME280;55906;52.278;6.808;2023-07-31T03:16:28;100650.75;;;16.40;100.00
68871;BME280;55906;52.278;6.808;2023-07-31T03:18:55;100646.34;;;16.37;100.00
68871;BME280;55906;52.278;6.808;2023-07-31T03:21:21;100651.66;;;16.39;100.00
68871;BME280;55906;52.278;6.808;2023-07-31T03:23:48;100648.09;;;16.41;100.00
68871;BME280;55906;52.278;6.808;2023-07-31T03:26:16;100648.09;;;16.41;100.00
68871;BME280;55906;52.278;6.808;2023-07-31T03:28:43;100653.41;;;16.46;100.00
68871;BME280;55906;52.278;6.808;2023-07-31T03:31:09;100653.41;;;16.49;100.00
68871;BME280;55906;52.278;6.808;2023-07-31T03:33:36;100641.91;;;16.48;100.00
68871;BME280;55906;52.278;6.808;2023-07-31T03:36:04;100635.69;;;16.48;100.00
68871;BME280;55906;52.278;6.808;2023-07-31T03:38:30;100651.63;;;16.52;100.00
68871;BME280;55906;52.278;6.808;2023-07-31T03:40:57;100647.19;;;16.54;100.00
68871;BME280;55906;52.278;6.808;2023-07-31T03:43:25;100650.72;;;16.56;100.00
68871;BME280;55906;52.278;6.808;2023-07-31T03:45:52;100649.84;;;16.51;100.00
68871;BME280;55906;52.278;6.808;2023-07-31T03:48:18;100660.47;;;16.53;100.00
68871;BME280;55906;52.278;6.808;2023-07-31T03:50:45;100648.09;;;16.53;100.00
68871;BME280;55906;52.278;6.808;2023-07-31T03:53:12;100649.84;;;16.54;100.00
68871;BME280;55906;52.278;6.808;2023-07-31T03:55:38;100654.28;;;16.57;100.00
68871;BME280;55906;52.278;6.808;2023-07-31T03:58:05;100655.16;;;16.54;100.00
68871;BME280;55906;52.278;6.808;2023-07-31T04:00:33;100652.50;;;16.59;100.00
68871;BME280;55906;52.278;6.808;2023-07-31T04:03:00;100650.72;;;16.58;100.00
68871;BME280;55906;52.278;6.808;2023-07-31T04:05:26;100664.00;;;16.62;100.00
68871;BME280;55906;52.278;6.808;2023-07-31T04:07:53;100653.38;;;16.61;100.00
68871;BME280;55906;52.278;6.808;2023-07-31T04:10:20;100645.41;;;16.59;100.00
68871;BME280;55906;52.278;6.808;2023-07-31T04:12:46;100649.84;;;16.67;100.00
68871;BME280;55906;52.278;6.808;2023-07-31T04:15:13;100638.31;;;16.64;100.00
68871;BME280;55906;52.278;6.808;2023-07-31T04:17:41;100640.97;;;16.63;100.00
68871;BME280;55906;52.278;6.808;2023-07-31T04:20:09;100638.31;;;16.61;100.00
68871;BME280;55906;52.278;6.808;2023-07-31T04:22:36;100644.53;;;16.68;100.00
68871;BME280;55906;52.278;6.808;2023-07-31T04:25:03;100647.19;;;16.70;100.00
68871;BME280;55906;52.278;6.808;2023-07-31T04:27:29;100645.44;;;16.67;100.00
68871;BME280;55906;52.278;6.808;2023-07-31T04:29:56;100646.31;;;16.68;100.00
68871;BME280;55906;52.278;6.808;2023-07-31T04:32:22;100649.84;;;16.67;100.00
68871;BME280;55906;52.278;6.808;2023-07-31T04:34:50;100640.09;;;16.69;100.00
68871;BME280;55906;52.278;6.808;2023-07-31T04:37:17;100648.97;;;16.68;100.00
68871;BME280;55906;52.278;6.808;2023-07-31T04:39:44;100641.00;;;16.69;100.00
68871;BME280;55906;52.278;6.808;2023-07-31T04:42:10;100633.91;;;16.70;100.00
68871;BME280;55906;52.278;6.808;2023-07-31T04:44:37;100637.44;;;16.72;100.00
68871;BME280;55906;52.278;6.808;2023-07-31T04:47:04;100632.13;;;16.69;100.00
68871;BME280;55906;52.278;6.808;2023-07-31T04:49:31;100639.22;;;16.70;100.00
68871;BME280;55906;52.278;6.808;2023-07-31T04:51:59;100632.13;;;16.72;100.00
68871;BME280;55906;52.278;6.808;2023-07-31T04:54:26;100634.78;;;16.69;100.00
68871;BME280;55906;52.278;6.808;2023-07-31T04:56:53;100633.91;;;16.71;100.00
68871;BME280;55906;52.278;6.808;2023-07-31T04:59:19;100638.34;;;16.68;100.00
68871;BME280;55906;52.278;6.808;2023-07-31T05:01:46;100622.41;;;16.66;100.00
68871;BME280;55906;52.278;6.808;2023-07-31T05:04:13;100625.06;;;16.66;100.00
68871;BME280;55906;52.278;6.808;2023-07-31T05:06:40;100625.94;;;16.71;100.00
68871;BME280;55906;52.278;6.808;2023-07-31T05:09:08;100621.50;;;16.70;100.00
68871;BME280;55906;52.278;6.808;2023-07-31T05:11:35;100619.75;;;16.68;100.00
68871;BME280;55906;52.278;6.808;2023-07-31T05:14:02;100608.25;;;16.67;100.00
68871;BME280;55906;52.278;6.808;2023-07-31T05:16:29;100616.19;;;16.62;100.00
68871;BME280;55906;52.278;6.808;2023-07-31T05:18:55;100628.59;;;16.67;100.00
68871;BME280;55906;52.278;6.808;2023-07-31T05:21:22;100617.97;;;16.60;100.00
68871;BME280;55906;52.278;6.808;2023-07-31T05:23:49;100618.84;;;16.58;100.00
68871;BME280;55906;52.278;6.808;2023-07-31T05:26:17;100623.28;;;16.54;100.00
68871;BME280;55906;52.278;6.808;2023-07-31T05:28:44;100618.88;;;16.49;100.00
68871;BME280;55906;52.278;6.808;2023-07-31T05:31:10;100618.88;;;16.49;100.00
68871;BME280;55906;52.278;6.808;2023-07-31T05:33:37;100623.31;;;16.45;100.00
68871;BME280;55906;52.278;6.808;2023-07-31T05:36:04;100618.88;;;16.49;100.00
68871;BME280;55906;52.278;6.808;2023-07-31T05:38:30;100612.69;;;16.45;100.00
68871;BME280;55906;52.278;6.808;2023-07-31T05:40:57;100615.34;;;16.44;100.00
68871;BME280;55906;52.278;6.808;2023-07-31T05:43:25;100616.22;;;16.44;100.00
68871;BME280;55906;52.278;6.808;2023-07-31T05:45:51;100610.03;;;16.48;100.00
68871;BME280;55906;52.278;6.808;2023-07-31T05:48:18;100610.03;;;16.48;100.00
68871;BME280;55906;52.278;6.808;2023-07-31T05:50:44;100616.22;;;16.49;100.00
68871;BME280;55906;52.278;6.808;2023-07-31T05:53:11;100614.44;;;16.49;100.00
68871;BME280;55906;52.278;6.808;2023-07-31T05:55:38;100608.25;;;16.49;100.00
68871;BME280;55906;52.278;6.808;2023-07-31T05:58:04;100603.81;;;16.52;100.00
68871;BME280;55906;52.278;6.808;2023-07-31T06:00:32;100610.00;;;16.56;100.00
68871;BME280;55906;52.278;6.808;2023-07-31T06:02:59;100601.16;;;16.52;100.00
68871;BME280;55906;52.278;6.808;2023-07-31T06:05:26;100603.81;;;16.58;100.00
68871;BME280;55906;52.278;6.808;2023-07-31T06:07:54;100607.34;;;16.60;100.00
68871;BME280;55906;52.278;6.808;2023-07-31T06:10:21;100597.59;;;16.62;100.00
68871;BME280;55906;52.278;6.808;2023-07-31T06:12:47;100601.16;;;16.68;100.00
68871;BME280;55906;52.278;6.808;2023-07-31T06:15:14;100591.41;;;16.67;100.00
68871;BME280;55906;52.278;6.808;2023-07-31T06:17:42;100609.09;;;16.77;100.00
68871;BME280;55906;52.278;6.808;2023-07-31T06:20:09;100599.34;;;16.76;99.81
68871;BME280;55906;52.278;6.808;2023-07-31T06:22:36;100596.69;;;16.76;99.82
68871;BME280;55906;52.278;6.808;2023-07-31T06:25:02;100589.59;;;16.78;99.90
68871;BME280;55906;52.278;6.808;2023-07-31T06:27:29;100601.13;;;16.74;100.00
68871;BME280;55906;52.278;6.808;2023-07-31T06:29:56;100584.31;;;16.75;100.00
68871;BME280;55906;52.278;6.808;2023-07-31T06:32:23;100580.75;;;16.73;100.00
68871;BME280;55906;52.278;6.808;2023-07-31T06:34:51;100581.66;;;16.73;100.00
68871;BME280;55906;52.278;6.808;2023-07-31T06:37:17;100576.34;;;16.69;100.00
68871;BME280;55906;52.278;6.808;2023-07-31T06:39:44;100579.00;;;16.62;100.00
68871;BME280;55906;52.278;6.808;2023-07-31T06:42:10;100582.53;;;16.61;100.00
68871;BME280;55906;52.278;6.808;2023-07-31T06:44:37;100577.25;;;16.55;100.00
68871;BME280;55906;52.278;6.808;2023-07-31T06:47:04;100569.31;;;16.51;100.00
68871;BME280;55906;52.278;6.808;2023-07-31T06:49:33;100568.44;;;16.47;100.00
68871;BME280;55906;52.278;6.808;2023-07-31T06:52:01;100573.75;;;16.44;100.00
68871;BME280;55906;52.278;6.808;2023-07-31T06:54:28;100571.09;;;16.46;100.00
68871;BME280;55906;52.278;6.808;2023-07-31T06:56:54;100576.41;;;16.46;100.00
68871;BME280;55906;52.278;6.808;2023-07-31T06:59:21;100574.63;;;16.46;100.00
68871;BME280;55906;52.278;6.808;2023-07-31T07:01:48;100557.81;;;16.44;100.00
68871;BME280;55906;52.278;6.808;2023-07-31T07:04:14;100556.00;;;16.55;100.00
68871;BME280;55906;52.278;6.808;2023-07-31T07:06:41;100551.56;;;16.59;100.00
68871;BME280;55906;52.278;6.808;2023-07-31T07:09:09;100557.78;;;16.66;100.00
68871;BME280;55906;52.278;6.808;2023-07-31T07:11:35;100552.44;;;16.69;100.00
68871;BME280;55906;52.278;6.808;2023-07-31T07:14:03;100553.31;;;16.69;100.00
68871;BME280;55906;52.278;6.808;2023-07-31T07:16:29;100558.63;;;16.71;100.00
68871;BME280;55906;52.278;6.808;2023-07-31T07:18:56;100548.88;;;16.74;100.00
68871;BME280;55906;52.278;6.808;2023-07-31T07:21:23;100548.88;;;16.76;100.00
68871;BME280;55906;52.278;6.808;2023-07-31T07:23:49;100547.06;;;16.81;100.00
68871;BME280;55906;52.278;6.808;2023-07-31T07:26:17;100544.41;;;16.82;100.00
68871;BME280;55906;52.278;6.808;2023-07-31T07:28:44;100549.72;;;16.85;100.00
68871;BME280;55906;52.278;6.808;2023-07-31T07:31:11;100539.97;;;16.86;100.00
68871;BME280;55906;52.278;6.808;2023-07-31T07:33:37;100527.53;;;16.89;100.00
68871;BME280;55906;52.278;6.808;2023-07-31T07:36:04;100533.78;;;16.91;100.00
68871;BME280;55906;52.278;6.808;2023-07-31T07:38:34;100538.16;;;16.97;100.00
68871;BME280;55906;52.278;6.808;2023-07-31T07:41:01;100532.84;;;16.99;100.00
68871;BME280;55906;52.278;6.808;2023-07-31T07:43:29;100526.63;;;17.01;100.00
68871;BME280;55906;52.278;6.808;2023-07-31T07:45:56;100520.44;;;16.98;100.00
68871;BME280;55906;52.278;6.808;2023-07-31T07:48:22;100528.41;;;17.01;100.00
68871;BME280;55906;52.278;6.808;2023-07-31T07:50:50;100528.38;;;17.07;100.00
68871;BME280;55906;52.278;6.808;2023-07-31T07:53:17;100529.25;;;17.04;100.00
68871;BME280;55906;52.278;6.808;2023-07-31T07:55:43;100518.56;;;17.13;100.00
68871;BME280;55906;52.278;6.808;2023-07-31T07:58:10;100526.56;;;17.12;100.00
68871;BME280;55906;52.278;6.808;2023-07-31T08:00:38;100520.34;;;17.14;100.00
68871;BME280;55906;52.278;6.808;2023-07-31T08:03:05;100514.97;;;17.23;100.00
68871;BME280;55906;52.278;6.808;2023-07-31T08:05:32;100512.31;;;17.20;100.00
68871;BME280;55906;52.278;6.808;2023-07-31T08:07:59;100509.63;;;17.23;100.00
68871;BME280;55906;52.278;6.808;2023-07-31T08:10:26;100506.06;;;17.27;100.00
68871;BME280;55906;52.278;6.808;2023-07-31T08:12:52;100506.94;;;17.28;100.00
68871;BME280;55906;52.278;6.808;2023-07-31T08:15:19;100505.13;;;17.35;100.00
68871;BME280;55906;52.278;6.808;2023-07-31T08:17:47;100504.22;;;17.36;100.00
68871;BME280;55906;52.278;6.808;2023-07-31T08:20:13;100489.16;;;17.36;100.00
68871;BME280;55906;52.278;6.808;2023-07-31T08:22:40;100506.88;;;17.37;100.00
68871;BME280;55906;52.278;6.808;2023-07-31T08:25:08;100500.63;;;17.43;100.00
68871;BME280;55906;52.278;6.808;2023-07-31T08:27:34;100487.38;;;17.38;100.00
68871;BME280;55906;52.278;6.808;2023-07-31T08:30:01;100494.41;;;17.45;100.00
68871;BME280;55906;52.278;6.808;2023-07-31T08:32:27;100492.63;;;17.46;100.00
68871;BME280;55906;52.278;6.808;2023-07-31T08:34:56;100493.50;;;17.46;100.00
68871;BME280;55906;52.278;6.808;2023-07-31T08:37:22;100479.31;;;17.47;100.00
68871;BME280;55906;52.278;6.808;2023-07-31T08:39:49;100479.38;;;17.41;100.00
68871;BME280;55906;52.278;6.808;2023-07-31T08:42:16;100480.25;;;17.42;100.00
68871;BME280;55906;52.278;6.808;2023-07-31T08:44:43;100493.50;;;17.45;100.00
68871;BME280;55906;52.278;6.808;2023-07-31T08:47:10;100470.47;;;17.45;100.00
68871;BME280;55906;52.278;6.808;2023-07-31T08:49:38;100486.38;;;17.51;100.00
68871;BME280;55906;52.278;6.808;2023-07-31T08:52:07;100484.56;;;17.53;100.00
68871;BME280;55906;52.278;6.808;2023-07-31T08:54:34;100473.06;;;17.53;100.00
68871;BME280;55906;52.278;6.808;2023-07-31T08:57:00;100485.41;;;17.60;100.00
68871;BME280;55906;52.278;6.808;2023-07-31T08:59:29;100479.22;;;17.58;100.00
68871;BME280;55906;52.278;6.808;2023-07-31T09:02:05;100486.25;;;17.68;100.00
68871;BME280;55906;52.278;6.808;2023-07-31T09:04:32;100480.03;;;17.65;100.00
68871;BME280;55906;52.278;6.808;2023-07-31T09:07:00;100464.06;;;17.68;100.00
68871;BME280;55906;52.278;6.808;2023-07-31T09:09:29;100479.09;;;17.75;100.00
68871;BME280;55906;52.278;6.808;2023-07-31T09:11:57;100474.66;;;17.74;100.00
68871;BME280;55906;52.278;6.808;2023-07-31T09:14:24;100465.78;;;17.75;100.00
68871;BME280;55906;52.278;6.808;2023-07-31T09:16:52;100471.97;;;17.78;100.00
68871;BME280;55906;52.278;6.808;2023-07-31T09:19:25;100468.44;;;17.76;100.00
68871;BME280;55906;52.278;6.808;2023-07-31T09:21:51;100467.56;;;17.73;100.00
68871;BME280;55906;52.278;6.808;2023-07-31T09:24:25;100461.34;;;17.74;100.00
68871;BME280;55906;52.278;6.808;2023-07-31T09:26:55;100470.19;;;17.77;100.00
68871;BME280;55906;52.278;6.808;2023-07-31T09:29:22;100474.63;;;17.78;100.00
68871;BME280;55906;52.278;6.808;2023-07-31T09:31:50;100467.44;;;17.85;100.00
68871;BME280;55906;52.278;6.808;2023-07-31T09:34:17;100470.06;;;17.91;100.00
68871;BME280;55906;52.278;6.808;2023-07-31T09:36:44;100464.81;;;17.83;100.00
68871;BME280;55906;52.278;6.808;2023-07-31T09:39:12;100460.25;;;17.93;100.00
68871;BME280;55906;52.278;6.808;2023-07-31T09:41:41;100459.41;;;17.89;100.00
68871;BME280;55906;52.278;6.808;2023-07-31T09:44:09;100450.59;;;17.86;100.00
68871;BME280;55906;52.278;6.808;2023-07-31T09:46:36;100448.78;;;17.89;100.00
68871;BME280;55906;52.278;6.808;2023-07-31T09:49:07;100449.56;;;17.98;100.00
68871;BME280;55906;52.278;6.808;2023-07-31T09:51:35;100447.84;;;17.94;100.00
68871;BME280;55906;52.278;6.808;2023-07-31T09:54:08;100451.28;;;18.02;100.00
68871;BME280;55906;52.278;6.808;2023-07-31T09:56:36;100447.75;;;18.01;100.00
68871;BME280;55906;52.278;6.808;2023-07-31T09:59:04;100446.81;;;18.07;100.00
68871;BME280;55906;52.278;6.808;2023-07-31T10:01:32;100437.00;;;18.09;100.00
68871;BME280;55906;52.278;6.808;2023-07-31T10:04:01;100434.25;;;18.16;100.00
68871;BME280;55906;52.278;6.808;2023-07-31T10:06:28;100445.84;;;18.12;100.00
68871;BME280;55906;52.278;6.808;2023-07-31T10:08:55;100445.78;;;18.17;100.00
68871;BME280;55906;52.278;6.808;2023-07-31T10:11:24;100437.81;;;18.17;100.00
68871;BME280;55906;52.278;6.808;2023-07-31T10:13:53;100438.66;;;18.19;100.00
68871;BME280;55906;52.278;6.808;2023-07-31T10:16:21;100445.78;;;18.18;100.00
68871;BME280;55906;52.278;6.808;2023-07-31T10:18:50;100446.66;;;18.22;100.00
68871;BME280;55906;52.278;6.808;2023-07-31T10:21:17;100443.94;;;18.25;100.00
68871;BME280;55906;52.278;6.808;2023-07-31T10:23:44;100450.94;;;18.35;100.00
68871;BME280;55906;52.278;6.808;2023-07-31T10:26:13;100445.66;;;18.31;100.00
68871;BME280;55906;52.278;6.808;2023-07-31T10:28:41;100448.31;;;18.32;100.00
68871;BME280;55906;52.278;6.808;2023-07-31T10:31:09;100444.69;;;18.36;100.00
68871;BME280;55906;52.278;6.808;2023-07-31T10:33:36;100442.06;;;18.35;100.00
68871;BME280;55906;52.278;6.808;2023-07-31T10:36:14;100451.78;;;18.37;100.00
68871;BME280;55906;52.278;6.808;2023-07-31T10:38:43;100446.50;;;18.34;100.00
68871;BME280;55906;52.278;6.808;2023-07-31T10:41:10;100440.28;;;18.35;100.00
68871;BME280;55906;52.278;6.808;2023-07-31T10:43:37;100447.41;;;18.33;100.00
68871;BME280;55906;52.278;6.808;2023-07-31T10:46:06;100441.97;;;18.41;100.00
68871;BME280;55906;52.278;6.808;2023-07-31T10:48:35;100434.91;;;18.37;100.00
68871;BME280;55906;52.278;6.808;2023-07-31T10:51:07;100435.72;;;18.43;100.00
68871;BME280;55906;52.278;6.808;2023-07-31T10:53:36;100448.97;;;18.49;100.00
68871;BME280;55906;52.278;6.808;2023-07-31T10:56:03;100423.13;;;18.54;100.00
68871;BME280;55906;52.278;6.808;2023-07-31T10:58:30;100429.22;;;18.66;100.00
68871;BME280;55906;52.278;6.808;2023-07-31T11:00:59;100430.09;;;18.68;100.00
68871;BME280;55906;52.278;6.808;2023-07-31T11:03:27;100433.50;;;18.77;100.00
68871;BME280;55906;52.278;6.808;2023-07-31T11:06:06;100421.09;;;18.75;100.00
68871;BME280;55906;52.278;6.808;2023-07-31T11:08:35;100433.56;;;18.73;100.00
68871;BME280;55906;52.278;6.808;2023-07-31T11:11:08;100423.78;;;18.73;100.00
68871;BME280;55906;52.278;6.808;2023-07-31T11:13:41;100428.16;;;18.79;100.00
68871;BME280;55906;52.278;6.808;2023-07-31T11:16:07;100422.00;;;18.74;100.00
68871;BME280;55906;52.278;6.808;2023-07-31T11:18:34;100420.25;;;18.73;100.00
68871;BME280;55906;52.278;6.808;2023-07-31T11:21:01;100423.75;;;18.75;100.00
68871;BME280;55906;52.278;6.808;2023-07-31T11:23:28;100420.16;;;18.77;100.00
68871;BME280;55906;52.278;6.808;2023-07-31T11:25:59;100422.00;;;18.74;100.00
68871;BME280;55906;52.278;6.808;2023-07-31T11:28:31;100424.66;;;18.74;100.00
68871;BME280;55906;52.278;6.808;2023-07-31T11:30:59;100420.25;;;18.73;100.00
68871;BME280;55906;52.278;6.808;2023-07-31T11:33:26;100415.78;;;18.75;100.00
68871;BME280;55906;52.278;6.808;2023-07-31T11:35:53;100420.25;;;18.71;100.00
68871;BME280;55906;52.278;6.808;2023-07-31T11:38:22;100418.56;;;18.66;100.00
68871;BME280;55906;52.278;6.808;2023-07-31T11:40:50;100421.19;;;18.69;100.00
68871;BME280;55906;52.278;6.808;2023-07-31T11:43:19;100415.84;;;18.69;100.00
68871;BME280;55906;52.278;6.808;2023-07-31T11:45:47;100419.31;;;18.75;100.00
68871;BME280;55906;52.278;6.808;2023-07-31T11:48:22;100418.19;;;18.90;100.00
68871;BME280;55906;52.278;6.808;2023-07-31T11:50:50;100417.13;;;19.02;99.81
68871;BME280;55906;52.278;6.808;2023-07-31T11:53:20;100406.34;;;19.09;98.52
68871;BME280;55906;52.278;6.808;2023-07-31T11:55:47;100394.59;;;19.19;97.50
68871;BME280;55906;52.278;6.808;2023-07-31T11:58:15;100409.50;;;19.33;97.46
68871;BME280;55906;52.278;6.808;2023-07-31T12:00:44;100419.94;;;19.45;96.47
68871;BME280;55906;52.278;6.808;2023-07-31T12:03:11;100414.59;;;19.46;94.66
68871;BME280;55906;52.278;6.808;2023-07-31T12:05:38;100414.44;;;19.57;94.29
68871;BME280;55906;52.278;6.808;2023-07-31T12:08:09;100411.28;;;19.83;93.82
68871;BME280;55906;52.278;6.808;2023-07-31T12:10:36;100413.75;;;19.94;93.30
68871;BME280;55906;52.278;6.808;2023-07-31T12:13:04;100393.91;;;20.07;91.95
68871;BME280;55906;52.278;6.808;2023-07-31T12:15:36;100403.50;;;20.16;91.85
68871;BME280;55906;52.278;6.808;2023-07-31T12:18:09;100405.38;;;20.12;91.83
68871;BME280;55906;52.278;6.808;2023-07-31T12:20:41;100403.81;;;20.43;90.59
68871;BME280;55906;52.278;6.808;2023-07-31T12:23:13;100416.03;;;20.55;89.51
68871;BME280;55906;52.278;6.808;2023-07-31T12:25:40;100396.44;;;20.55;88.96
68871;BME280;55906;52.278;6.808;2023-07-31T12:28:07;100413.25;;;20.60;89.26
68871;BME280;55906;52.278;6.808;2023-07-31T12:30:38;100397.53;;;20.46;88.21
68871;BME280;55906;52.278;6.808;2023-07-31T12:33:05;100413.50;;;20.49;87.69
68871;BME280;55906;52.278;6.808;2023-07-31T12:35:40;100398.25;;;20.54;86.72
68871;BME280;55906;52.278;6.808;2023-07-31T12:38:06;100404.69;;;20.45;87.90
68871;BME280;55906;52.278;6.808;2023-07-31T12:40:35;100399.59;;;20.32;88.68
68871;BME280;55906;52.278;6.808;2023-07-31T12:43:02;100407.72;;;20.27;89.88